Terminal Aerodrome Forecast
Issued by NWS

Home | Current Version | Previous Version | Graphics & Text | Print | Product List | Glossary On
Versions: 1 2 3 4 5 6 7 8 9 10 11 12 13 14 15 16
000
FTUS43 KGRB 212300
TAFRHI
TAF
KRHI 212327Z 2200/2224 32010G17KT P6SM SCT020
      TEMPO 2205/2209 BKN020
     FM220900 30010G20KT P6SM OVC015
      TEMPO 2210/2214 4SM -SHSN OVC012
     FM221400 33012G21KT P6SM BKN025=

USA.gov is the U.S. government's official web portal to all federal, state and local government web resources and services.